sensor_id;sensor_type;location;lat;lon;timestamp;pressure;altitude;pressure_sealevel;temperature;humidity
26192;BME280;13935;55.672;37.764;2022-11-20T06:16:05;100371.69;;;-1.42;100.00
26192;BME280;13935;55.672;37.764;2022-11-20T06:17:07;100372.56;;;-1.28;100.00
26192;BME280;13935;55.672;37.764;2022-11-20T06:18:09;100367.53;;;-1.21;100.00
26192;BME280;13935;55.672;37.764;2022-11-20T06:19:11;100370.13;;;-1.29;100.00
26192;BME280;13935;55.672;37.764;2022-11-20T06:20:13;100376.50;;;-1.39;100.00
26192;BME280;13935;55.672;37.764;2022-11-20T06:21:17;100378.66;;;-1.36;100.00
26192;BME280;13935;55.672;37.764;2022-11-20T06:22:20;100371.72;;;-1.28;100.00
26192;BME280;13935;55.672;37.764;2022-11-20T06:23:23;100379.66;;;-1.32;100.00
26192;BME280;13935;55.672;37.764;2022-11-20T06:24:25;100380.03;;;-1.38;100.00
26192;BME280;13935;55.672;37.764;2022-11-20T06:25:40;100389.22;;;-1.21;100.00
26192;BME280;13935;55.672;37.764;2022-11-20T06:26:43;100399.53;;;-1.04;100.00
26192;BME280;13935;55.672;37.764;2022-11-20T06:27:48;100400.28;;;-1.17;100.00
26192;BME280;13935;55.672;37.764;2022-11-20T06:28:51;100402.78;;;-1.21;100.00
26192;BME280;13935;55.672;37.764;2022-11-20T06:29:55;100400.69;;;-1.24;100.00
26192;BME280;13935;55.672;37.764;2022-11-20T06:31:05;100393.72;;;-0.98;100.00
26192;BME280;13935;55.672;37.764;2022-11-20T06:32:37;100400.94;;;-1.07;100.00
26192;BME280;13935;55.672;37.764;2022-11-20T06:34:11;100405.16;;;-1.01;100.00
26192;BME280;13935;55.672;37.764;2022-11-20T06:35:36;100401.75;;;-1.06;100.00
26192;BME280;13935;55.672;37.764;2022-11-20T06:37:21;100398.53;;;-1.08;100.00
26192;BME280;13935;55.672;37.764;2022-11-20T06:39:09;100406.47;;;-0.98;100.00
26192;BME280;13935;55.672;37.764;2022-11-20T06:40:21;100412.22;;;-1.00;100.00
26192;BME280;13935;55.672;37.764;2022-11-20T06:41:57;100408.97;;;-1.02;100.00
26192;BME280;13935;55.672;37.764;2022-11-20T06:43:10;100414.41;;;-1.02;100.00
26192;BME280;13935;55.672;37.764;2022-11-20T06:44:18;100411.84;;;-0.80;100.00
26192;BME280;13935;55.672;37.764;2022-11-20T06:45:54;100400.16;;;-0.80;100.00
26192;BME280;13935;55.672;37.764;2022-11-20T06:47:47;100404.28;;;-0.96;100.00
26192;BME280;13935;55.672;37.764;2022-11-20T06:49:17;100403.38;;;-0.92;100.00
26192;BME280;13935;55.672;37.764;2022-11-20T06:50:20;100397.22;;;-0.97;100.00
26192;BME280;13935;55.672;37.764;2022-11-20T06:51:22;100403.63;;;-0.75;100.00
26192;BME280;13935;55.672;37.764;2022-11-20T06:52:26;100391.34;;;-0.73;100.00
26192;BME280;13935;55.672;37.764;2022-11-20T06:53:30;100391.25;;;-0.81;100.00
26192;BME280;13935;55.672;37.764;2022-11-20T06:54:33;100396.19;;;-0.70;100.00
26192;BME280;13935;55.672;37.764;2022-11-20T06:55:36;100391.75;;;-0.79;100.00
26192;BME280;13935;55.672;37.764;2022-11-20T06:56:39;100387.22;;;-0.70;100.00
26192;BME280;13935;55.672;37.764;2022-11-20T06:57:41;100390.16;;;-0.53;100.00
26192;BME280;13935;55.672;37.764;2022-11-20T06:59:03;100396.97;;;-0.69;100.00
26192;BME280;13935;55.672;37.764;2022-11-20T07:00:06;100403.72;;;-0.80;100.00
26192;BME280;13935;55.672;37.764;2022-11-20T07:01:10;100399.91;;;-0.79;100.00
26192;BME280;13935;55.672;37.764;2022-11-20T07:02:13;100403.63;;;-0.62;100.00
26192;BME280;13935;55.672;37.764;2022-11-20T07:03:25;100407.63;;;-0.86;100.00
26192;BME280;13935;55.672;37.764;2022-11-20T07:04:27;100399.78;;;-0.74;100.00
26192;BME280;13935;55.672;37.764;2022-11-20T07:05:33;100399.22;;;-0.58;100.00
26192;BME280;13935;55.672;37.764;2022-11-20T07:06:38;100402.41;;;-0.56;100.00
26192;BME280;13935;55.672;37.764;2022-11-20T07:07:43;100396.97;;;-0.69;100.00
26192;BME280;13935;55.672;37.764;2022-11-20T07:08:45;100398.69;;;-0.73;100.00
26192;BME280;13935;55.672;37.764;2022-11-20T07:09:49;100400.00;;;-0.71;100.00
26192;BME280;13935;55.672;37.764;2022-11-20T07:10:57;100403.25;;;-0.55;100.00
26192;BME280;13935;55.672;37.764;2022-11-20T07:12:00;100403.03;;;-0.72;100.00
26192;BME280;13935;55.672;37.764;2022-11-20T07:13:02;100395.88;;;-0.68;100.00
26192;BME280;13935;55.672;37.764;2022-11-20T07:14:12;100402.00;;;-0.76;100.00
26192;BME280;13935;55.672;37.764;2022-11-20T07:15:15;100399.59;;;-0.64;100.00
26192;BME280;13935;55.672;37.764;2022-11-20T07:16:18;100399.38;;;-0.81;100.00
26192;BME280;13935;55.672;37.764;2022-11-20T07:17:21;100400.59;;;-0.73;100.00
26192;BME280;13935;55.672;37.764;2022-11-20T07:18:23;100399.19;;;-0.71;100.00
26192;BME280;13935;55.672;37.764;2022-11-20T07:19:25;100402.81;;;-0.62;100.00
26192;BME280;13935;55.672;37.764;2022-11-20T07:20:27;100411.91;;;-0.53;100.00
26192;BME280;13935;55.672;37.764;2022-11-20T07:21:31;100400.41;;;-0.50;100.00
26192;BME280;13935;55.672;37.764;2022-11-20T07:22:33;100402.81;;;-0.49;100.00
26192;BME280;13935;55.672;37.764;2022-11-20T07:23:36;100399.00;;;-0.48;100.00
26192;BME280;13935;55.672;37.764;2022-11-20T07:24:39;100394.41;;;-0.47;100.00
26192;BME280;13935;55.672;37.764;2022-11-20T07:26:07;100404.13;;;-0.46;100.00
26192;BME280;13935;55.672;37.764;2022-11-20T07:27:13;100414.69;;;-0.58;100.00
26192;BME280;13935;55.672;37.764;2022-11-20T07:28:19;100409.91;;;-0.34;100.00
26192;BME280;13935;55.672;37.764;2022-11-20T07:29:21;100414.50;;;-0.48;100.00
26192;BME280;13935;55.672;37.764;2022-11-20T07:30:26;100407.25;;;-0.53;100.00
26192;BME280;13935;55.672;37.764;2022-11-20T07:31:32;100403.13;;;-0.23;100.00
26192;BME280;13935;55.672;37.764;2022-11-20T07:32:38;100408.78;;;-0.20;100.00
26192;BME280;13935;55.672;37.764;2022-11-20T07:33:52;100409.38;;;-0.36;100.00
26192;BME280;13935;55.672;37.764;2022-11-20T07:35:24;100404.47;;;-0.34;100.00
26192;BME280;13935;55.672;37.764;2022-11-20T07:37:01;100403.66;;;-0.48;100.00
26192;BME280;13935;55.672;37.764;2022-11-20T07:38:12;100406.16;;;-0.38;100.00
26192;BME280;13935;55.672;37.764;2022-11-20T07:39:32;100407.06;;;-0.56;100.00
26192;BME280;13935;55.672;37.764;2022-11-20T07:40:34;100404.06;;;-0.41;100.00
26192;BME280;13935;55.672;37.764;2022-11-20T07:41:41;100407.16;;;-0.48;100.00
26192;BME280;13935;55.672;37.764;2022-11-20T07:43:02;100411.69;;;-0.30;100.00
26192;BME280;13935;55.672;37.764;2022-11-20T07:44:11;100396.91;;;-0.37;100.00
26192;BME280;13935;55.672;37.764;2022-11-20T07:45:20;100402.34;;;-0.37;100.00
26192;BME280;13935;55.672;37.764;2022-11-20T07:46:26;100396.09;;;-0.51;100.00
26192;BME280;13935;55.672;37.764;2022-11-20T07:47:35;100407.66;;;-0.32;100.00
26192;BME280;13935;55.672;37.764;2022-11-20T07:48:48;100408.97;;;-0.30;100.00
26192;BME280;13935;55.672;37.764;2022-11-20T07:50:17;100410.28;;;-0.27;100.00
26192;BME280;13935;55.672;37.764;2022-11-20T07:51:23;100420.94;;;-0.17;100.00
26192;BME280;13935;55.672;37.764;2022-11-20T07:52:35;100417.94;;;-0.29;100.00
26192;BME280;13935;55.672;37.764;2022-11-20T07:53:45;100417.31;;;-0.26;100.00
26192;BME280;13935;55.672;37.764;2022-11-20T07:57:11;100424.19;;;-0.42;100.00
26192;BME280;13935;55.672;37.764;2022-11-20T08:00:51;100426.78;;;-0.24;100.00
26192;BME280;13935;55.672;37.764;2022-11-20T08:02:33;100426.69;;;-0.19;100.00
26192;BME280;13935;55.672;37.764;2022-11-20T08:03:50;100431.91;;;-0.36;100.00
26192;BME280;13935;55.672;37.764;2022-11-20T08:05:00;100437.56;;;-0.32;100.00
26192;BME280;13935;55.672;37.764;2022-11-20T08:06:27;100425.78;;;-0.28;100.00
26192;BME280;13935;55.672;37.764;2022-11-20T08:07:36;100422.75;;;-0.53;100.00
26192;BME280;13935;55.672;37.764;2022-11-20T08:08:43;100427.94;;;-0.70;100.00
26192;BME280;13935;55.672;37.764;2022-11-20T08:09:53;100421.09;;;-0.81;100.00
26192;BME280;13935;55.672;37.764;2022-11-20T08:11:04;100424.75;;;-0.59;100.00
26192;BME280;13935;55.672;37.764;2022-11-20T08:12:28;100438.66;;;-0.60;100.00
26192;BME280;13935;55.672;37.764;2022-11-20T08:14:09;100439.94;;;-0.58;100.00
26192;BME280;13935;55.672;37.764;2022-11-20T08:15:17;100440.97;;;-0.40;100.00
26192;BME280;13935;55.672;37.764;2022-11-20T08:16:20;100441.88;;;-0.45;100.00
26192;BME280;13935;55.672;37.764;2022-11-20T08:17:38;100435.84;;;-0.28;100.00
26192;BME280;13935;55.672;37.764;2022-11-20T08:18:40;100439.69;;;-0.29;100.00
26192;BME280;13935;55.672;37.764;2022-11-20T08:19:42;100443.91;;;-0.23;100.00
26192;BME280;13935;55.672;37.764;2022-11-20T08:26:56;100449.31;;;-0.37;100.00
26192;BME280;13935;55.672;37.764;2022-11-20T08:28:09;100446.50;;;-0.18;100.00
26192;BME280;13935;55.672;37.764;2022-11-20T08:29:23;100445.41;;;-0.17;100.00
26192;BME280;13935;55.672;37.764;2022-11-20T08:30:28;100445.00;;;-0.38;100.00
26192;BME280;13935;55.672;37.764;2022-11-20T08:31:31;100447.31;;;-0.18;100.00
26192;BME280;13935;55.672;37.764;2022-11-20T08:32:35;100447.91;;;-0.07;100.00
26192;BME280;13935;55.672;37.764;2022-11-20T08:33:45;100440.19;;;-0.14;100.00
26192;BME280;13935;55.672;37.764;2022-11-20T08:35:38;100437.47;;;-0.14;100.00
26192;BME280;13935;55.672;37.764;2022-11-20T08:37:08;100439.16;;;-0.04;100.00
26192;BME280;13935;55.672;37.764;2022-11-20T08:38:18;100436.06;;;-0.11;100.00
26192;BME280;13935;55.672;37.764;2022-11-20T08:39:23;100441.25;;;-0.02;100.00
26192;BME280;13935;55.672;37.764;2022-11-20T08:40:25;100438.84;;;0.10;100.00
26192;BME280;13935;55.672;37.764;2022-11-20T08:41:28;100445.28;;;0.14;100.00
26192;BME280;13935;55.672;37.764;2022-11-20T08:42:33;100439.91;;;0.36;100.00
26192;BME280;13935;55.672;37.764;2022-11-20T08:43:36;100445.59;;;0.48;100.00
26192;BME280;13935;55.672;37.764;2022-11-20T08:44:40;100443.69;;;0.13;100.00
26192;BME280;13935;55.672;37.764;2022-11-20T08:45:47;100437.13;;;0.01;100.00
26192;BME280;13935;55.672;37.764;2022-11-20T08:46:51;100437.84;;;0.06;100.00
26192;BME280;13935;55.672;37.764;2022-11-20T08:47:59;100440.84;;;0.18;100.00
26192;BME280;13935;55.672;37.764;2022-11-20T08:49:05;100448.81;;;0.15;100.00
26192;BME280;13935;55.672;37.764;2022-11-20T08:50:14;100450.81;;;0.09;100.00
26192;BME280;13935;55.672;37.764;2022-11-20T08:51:21;100455.94;;;0.24;100.00
26192;BME280;13935;55.672;37.764;2022-11-20T08:52:31;100457.88;;;0.24;100.00
26192;BME280;13935;55.672;37.764;2022-11-20T08:53:41;100457.13;;;0.45;100.00
26192;BME280;13935;55.672;37.764;2022-11-20T08:54:44;100455.53;;;0.17;100.00
26192;BME280;13935;55.672;37.764;2022-11-20T08:55:51;100458.78;;;0.19;100.00
26192;BME280;13935;55.672;37.764;2022-11-20T08:56:54;100468.22;;;0.35;100.00
26192;BME280;13935;55.672;37.764;2022-11-20T08:57:57;100476.47;;;0.30;100.00
26192;BME280;13935;55.672;37.764;2022-11-20T08:59:00;100475.06;;;0.33;100.00
26192;BME280;13935;55.672;37.764;2022-11-20T09:00:23;100478.19;;;0.40;100.00
26192;BME280;13935;55.672;37.764;2022-11-20T09:01:26;100487.16;;;0.40;100.00
26192;BME280;13935;55.672;37.764;2022-11-20T09:02:28;100491.78;;;0.40;100.00
26192;BME280;13935;55.672;37.764;2022-11-20T09:03:31;100485.84;;;0.38;100.00
26192;BME280;13935;55.672;37.764;2022-11-20T09:04:35;100492.50;;;0.45;100.00
26192;BME280;13935;55.672;37.764;2022-11-20T09:05:38;100496.00;;;0.46;100.00
26192;BME280;13935;55.672;37.764;2022-11-20T09:06:41;100494.84;;;0.60;100.00
26192;BME280;13935;55.672;37.764;2022-11-20T09:07:44;100487.69;;;0.15;100.00
26192;BME280;13935;55.672;37.764;2022-11-20T09:08:46;100491.53;;;0.14;100.00
26192;BME280;13935;55.672;37.764;2022-11-20T09:09:49;100494.31;;;0.09;100.00
26192;BME280;13935;55.672;37.764;2022-11-20T09:11:11;100487.69;;;0.15;100.00
26192;BME280;13935;55.672;37.764;2022-11-20T09:12:15;100485.34;;;0.22;100.00
26192;BME280;13935;55.672;37.764;2022-11-20T09:13:21;100489.00;;;0.18;100.00
26192;BME280;13935;55.672;37.764;2022-11-20T09:14:26;100497.72;;;0.42;100.00
26192;BME280;13935;55.672;37.764;2022-11-20T09:15:34;100501.44;;;0.46;100.00
26192;BME280;13935;55.672;37.764;2022-11-20T09:17:02;100495.22;;;0.45;100.00
26192;BME280;13935;55.672;37.764;2022-11-20T09:18:06;100500.44;;;0.28;100.00
26192;BME280;13935;55.672;37.764;2022-11-20T09:19:10;100495.66;;;0.12;100.00
26192;BME280;13935;55.672;37.764;2022-11-20T09:20:45;100499.06;;;0.04;100.00
26192;BME280;13935;55.672;37.764;2022-11-20T09:22:00;100515.78;;;0.24;100.00
26192;BME280;13935;55.672;37.764;2022-11-20T09:23:22;100502.41;;;0.14;100.00
26192;BME280;13935;55.672;37.764;2022-11-20T09:24:44;100505.88;;;0.28;100.00
26192;BME280;13935;55.672;37.764;2022-11-20T09:25:53;100504.88;;;0.38;100.00
26192;BME280;13935;55.672;37.764;2022-11-20T09:27:11;100509.50;;;0.51;100.00
26192;BME280;13935;55.672;37.764;2022-11-20T09:28:30;100511.81;;;0.57;100.00
26192;BME280;13935;55.672;37.764;2022-11-20T09:30:50;100526.47;;;0.83;100.00
26192;BME280;13935;55.672;37.764;2022-11-20T09:32:11;100532.59;;;0.88;100.00
26192;BME280;13935;55.672;37.764;2022-11-20T09:33:33;100527.16;;;0.88;100.00
26192;BME280;13935;55.672;37.764;2022-11-20T09:35:00;100529.41;;;0.73;100.00
26192;BME280;13935;55.672;37.764;2022-11-20T09:36:58;100528.41;;;0.69;100.00
26192;BME280;13935;55.672;37.764;2022-11-20T09:38:09;100534.84;;;0.73;100.00
26192;BME280;13935;55.672;37.764;2022-11-20T09:39:15;100537.09;;;0.71;100.00
26192;BME280;13935;55.672;37.764;2022-11-20T09:40:31;100538.69;;;0.72;100.00
26192;BME280;13935;55.672;37.764;2022-11-20T09:45:02;100527.84;;;0.45;100.00
26192;BME280;13935;55.672;37.764;2022-11-20T09:47:12;100534.22;;;0.27;100.00
26192;BME280;13935;55.672;37.764;2022-11-20T09:49:01;100532.72;;;0.21;100.00
26192;BME280;13935;55.672;37.764;2022-11-20T09:52:37;100538.13;;;0.35;100.00
26192;BME280;13935;55.672;37.764;2022-11-20T09:55:20;100542.06;;;0.56;100.00
26192;BME280;13935;55.672;37.764;2022-11-20T09:56:33;100534.41;;;0.17;100.00
26192;BME280;13935;55.672;37.764;2022-11-20T09:58:31;100537.75;;;0.14;100.00
26192;BME280;13935;55.672;37.764;2022-11-20T10:00:00;100536.31;;;0.30;100.00
26192;BME280;13935;55.672;37.764;2022-11-20T10:01:32;100541.66;;;0.35;100.00
26192;BME280;13935;55.672;37.764;2022-11-20T10:03:00;100536.84;;;0.32;100.00
26192;BME280;13935;55.672;37.764;2022-11-20T10:05:10;100536.50;;;0.47;100.00
26192;BME280;13935;55.672;37.764;2022-11-20T10:06:21;100532.47;;;0.58;100.00
26192;BME280;13935;55.672;37.764;2022-11-20T10:10:05;100547.97;;;0.58;100.00
26192;BME280;13935;55.672;37.764;2022-11-20T10:14:13;100547.09;;;0.49;100.00
26192;BME280;13935;55.672;37.764;2022-11-20T10:15:45;100542.97;;;0.51;100.00
26192;BME280;13935;55.672;37.764;2022-11-20T10:18:41;100549.38;;;0.68;100.00
26192;BME280;13935;55.672;37.764;2022-11-20T10:25:32;100555.00;;;0.72;100.00
26192;BME280;13935;55.672;37.764;2022-11-20T10:28:00;100551.19;;;0.73;100.00
26192;BME280;13935;55.672;37.764;2022-11-20T10:29:19;100551.41;;;0.63;100.00
26192;BME280;13935;55.672;37.764;2022-11-20T10:30:35;100555.84;;;0.72;100.00
26192;BME280;13935;55.672;37.764;2022-11-20T10:31:47;100552.19;;;0.77;100.00
26192;BME280;13935;55.672;37.764;2022-11-20T10:33:40;100560.25;;;0.82;100.00
26192;BME280;13935;55.672;37.764;2022-11-20T10:34:48;100557.38;;;0.65;100.00
26192;BME280;13935;55.672;37.764;2022-11-20T10:36:23;100559.63;;;0.85;100.00
26192;BME280;13935;55.672;37.764;2022-11-20T10:37:29;100561.44;;;0.89;100.00
26192;BME280;13935;55.672;37.764;2022-11-20T10:38:51;100559.03;;;0.74;100.00
26192;BME280;13935;55.672;37.764;2022-11-20T10:41:32;100555.78;;;0.86;100.00
26192;BME280;13935;55.672;37.764;2022-11-20T10:44:16;100561.25;;;0.86;100.00
26192;BME280;13935;55.672;37.764;2022-11-20T10:45:52;100561.03;;;0.82;100.00
26192;BME280;13935;55.672;37.764;2022-11-20T10:47:15;100561.34;;;0.81;100.00
26192;BME280;13935;55.672;37.764;2022-11-20T10:48:25;100558.41;;;0.91;100.00
26192;BME280;13935;55.672;37.764;2022-11-20T10:49:34;100567.13;;;0.79;100.00
26192;BME280;13935;55.672;37.764;2022-11-20T10:50:44;100561.25;;;0.86;100.00
26192;BME280;13935;55.672;37.764;2022-11-20T10:53:32;100572.31;;;0.89;100.00
26192;BME280;13935;55.672;37.764;2022-11-20T10:54:58;100577.06;;;0.84;100.00
26192;BME280;13935;55.672;37.764;2022-11-20T10:56:34;100578.75;;;0.93;100.00
26192;BME280;13935;55.672;37.764;2022-11-20T11:03:07;100575.56;;;0.78;100.00
26192;BME280;13935;55.672;37.764;2022-11-20T11:04:54;100572.38;;;0.76;100.00
26192;BME280;13935;55.672;37.764;2022-11-20T11:07:49;100579.97;;;0.87;100.00
26192;BME280;13935;55.672;37.764;2022-11-20T11:09:50;100580.59;;;0.84;100.00
26192;BME280;13935;55.672;37.764;2022-11-20T11:12:57;100579.22;;;0.60;100.00
26192;BME280;13935;55.672;37.764;2022-11-20T11:14:09;100577.59;;;0.59;100.00
26192;BME280;13935;55.672;37.764;2022-11-20T11:15:45;100578.22;;;0.56;100.00
26192;BME280;13935;55.672;37.764;2022-11-20T11:16:58;100582.47;;;0.49;100.00
26192;BME280;13935;55.672;37.764;2022-11-20T11:18:04;100579.00;;;0.57;100.00
26192;BME280;13935;55.672;37.764;2022-11-20T11:19:13;100589.31;;;0.60;100.00
26192;BME280;13935;55.672;37.764;2022-11-20T11:20:50;100586.47;;;0.38;100.00
26192;BME280;13935;55.672;37.764;2022-11-20T11:22:34;100588.59;;;0.68;100.00
26192;BME280;13935;55.672;37.764;2022-11-20T11:24:14;100594.66;;;0.51;100.00
26192;BME280;13935;55.672;37.764;2022-11-20T11:26:23;100596.16;;;0.70;100.00
26192;BME280;13935;55.672;37.764;2022-11-20T11:27:33;100590.84;;;0.52;100.00
26192;BME280;13935;55.672;37.764;2022-11-20T11:29:15;100584.88;;;0.77;100.00
26192;BME280;13935;55.672;37.764;2022-11-20T11:30:44;100585.34;;;0.79;100.00
26192;BME280;13935;55.672;37.764;2022-11-20T11:31:49;100579.00;;;0.83;100.00
26192;BME280;13935;55.672;37.764;2022-11-20T11:33:23;100577.38;;;0.82;100.00
26192;BME280;13935;55.672;37.764;2022-11-20T11:34:33;100580.53;;;0.76;100.00
26192;BME280;13935;55.672;37.764;2022-11-20T11:36:21;100567.13;;;0.66;100.00
26192;BME280;13935;55.672;37.764;2022-11-20T11:37:37;100572.56;;;0.66;100.00
26192;BME280;13935;55.672;37.764;2022-11-20T11:39:11;100574.41;;;0.57;100.00
26192;BME280;13935;55.672;37.764;2022-11-20T11:40:17;100579.72;;;0.62;100.00
26192;BME280;13935;55.672;37.764;2022-11-20T11:41:36;100579.44;;;0.50;100.00
26192;BME280;13935;55.672;37.764;2022-11-20T11:42:48;100588.59;;;0.54;100.00
26192;BME280;13935;55.672;37.764;2022-11-20T11:43:55;100585.88;;;0.54;100.00
26192;BME280;13935;55.672;37.764;2022-11-20T11:45:21;100583.03;;;0.59;100.00
26192;BME280;13935;55.672;37.764;2022-11-20T11:46:33;100575.91;;;0.63;100.00
26192;BME280;13935;55.672;37.764;2022-11-20T11:47:46;100581.84;;;0.65;100.00
26192;BME280;13935;55.672;37.764;2022-11-20T11:49:08;100579.13;;;0.65;100.00
26192;BME280;13935;55.672;37.764;2022-11-20T11:50:29;100577.81;;;0.76;100.00
26192;BME280;13935;55.672;37.764;2022-11-20T11:54:53;100587.88;;;0.75;100.00
26192;BME280;13935;55.672;37.764;2022-11-20T11:56:16;100585.16;;;0.62;100.00
26192;BME280;13935;55.672;37.764;2022-11-20T11:57:47;100586.25;;;0.88;100.00
26192;BME280;13935;55.672;37.764;2022-11-20T11:58:57;100587.88;;;0.89;100.00
26192;BME280;13935;55.672;37.764;2022-11-20T12:02:46;100595.56;;;1.09;100.00
26192;BME280;13935;55.672;37.764;2022-11-20T12:04:59;100597.16;;;0.88;100.00
26192;BME280;13935;55.672;37.764;2022-11-20T12:06:24;100601.13;;;1.04;100.00
26192;BME280;13935;55.672;37.764;2022-11-20T12:07:41;100605.38;;;0.96;100.00
26192;BME280;13935;55.672;37.764;2022-11-20T12:08:57;100598.97;;;0.79;100.00
26192;BME280;13935;55.672;37.764;2022-11-20T12:10:15;100595.34;;;0.70;100.00
26192;BME280;13935;55.672;37.764;2022-11-20T12:11:44;100598.78;;;0.62;100.00
26192;BME280;13935;55.672;37.764;2022-11-20T12:12:54;100601.69;;;0.79;100.00
26192;BME280;13935;55.672;37.764;2022-11-20T12:14:34;100599.06;;;0.74;100.00
26192;BME280;13935;55.672;37.764;2022-11-20T12:15:46;100603.63;;;0.65;100.00
26192;BME280;13935;55.672;37.764;2022-11-20T12:16:57;100597.06;;;0.66;100.00
26192;BME280;13935;55.672;37.764;2022-11-20T12:18:04;100596.66;;;0.59;100.00
26192;BME280;13935;55.672;37.764;2022-11-20T12:19:13;100604.28;;;0.84;100.00
26192;BME280;13935;55.672;37.764;2022-11-20T12:20:19;100602.00;;;0.64;100.00
26192;BME280;13935;55.672;37.764;2022-11-20T12:24:06;100600.41;;;0.63;100.00
26192;BME280;13935;55.672;37.764;2022-11-20T12:28:39;100600.19;;;0.60;100.00
26192;BME280;13935;55.672;37.764;2022-11-20T12:36:27;100595.16;;;0.53;100.00
26192;BME280;13935;55.672;37.764;2022-11-20T12:38:06;100589.22;;;0.51;100.00
26192;BME280;13935;55.672;37.764;2022-11-20T12:46:46;100600.91;;;0.38;100.00
26192;BME280;13935;55.672;37.764;2022-11-20T12:50:06;100597.38;;;0.11;100.00
26192;BME280;13935;55.672;37.764;2022-11-20T12:53:24;100600.81;;;0.43;100.00
26192;BME280;13935;55.672;37.764;2022-11-20T12:55:16;100599.38;;;0.59;100.00
26192;BME280;13935;55.672;37.764;2022-11-20T12:57:54;100607.66;;;0.41;100.00
26192;BME280;13935;55.672;37.764;2022-11-20T13:00:54;100612.38;;;0.35;100.00
26192;BME280;13935;55.672;37.764;2022-11-20T13:03:48;100618.53;;;0.54;100.00
26192;BME280;13935;55.672;37.764;2022-11-20T13:06:21;100622.75;;;0.60;100.00
26192;BME280;13935;55.672;37.764;2022-11-20T13:07:32;100622.06;;;0.68;100.00
26192;BME280;13935;55.672;37.764;2022-11-20T13:08:41;100626.41;;;0.56;100.00
26192;BME280;13935;55.672;37.764;2022-11-20T13:09:48;100616.41;;;0.65;100.00
26192;BME280;13935;55.672;37.764;2022-11-20T13:13:42;100611.47;;;0.80;100.00
26192;BME280;13935;55.672;37.764;2022-11-20T13:18:47;100613.47;;;0.88;100.00
26192;BME280;13935;55.672;37.764;2022-11-20T13:19:56;100613.88;;;0.81;100.00
26192;BME280;13935;55.672;37.764;2022-11-20T13:21:17;100612.50;;;0.57;100.00
26192;BME280;13935;55.672;37.764;2022-11-20T13:24:33;100623.19;;;0.54;100.00
26192;BME280;13935;55.672;37.764;2022-11-20T13:25:41;100614.19;;;0.53;100.00
26192;BME280;13935;55.672;37.764;2022-11-20T13:26:46;100623.97;;;0.54;100.00
26192;BME280;13935;55.672;37.764;2022-11-20T13:28:03;100622.56;;;0.57;100.00
26192;BME280;13935;55.672;37.764;2022-11-20T13:29:27;100633.25;;;0.53;100.00
26192;BME280;13935;55.672;37.764;2022-11-20T13:30:52;100636.06;;;0.75;100.00
26192;BME280;13935;55.672;37.764;2022-11-20T13:32:16;100642.75;;;0.56;100.00
26192;BME280;13935;55.672;37.764;2022-11-20T13:33:35;100646.94;;;0.48;100.00
26192;BME280;13935;55.672;37.764;2022-11-20T13:34:51;100643.13;;;0.49;100.00
26192;BME280;13935;55.672;37.764;2022-11-20T13:36:04;100635.84;;;0.45;100.00
26192;BME280;13935;55.672;37.764;2022-11-20T13:37:25;100641.31;;;0.31;100.00
26192;BME280;13935;55.672;37.764;2022-11-20T13:38:47;100644.22;;;0.48;100.00
26192;BME280;13935;55.672;37.764;2022-11-20T13:41:26;100633.06;;;0.63;100.00
26192;BME280;13935;55.672;37.764;2022-11-20T13:43:00;100637.56;;;0.54;100.00
26192;BME280;13935;55.672;37.764;2022-11-20T13:45:31;100639.88;;;0.47;100.00
26192;BME280;13935;55.672;37.764;2022-11-20T13:46:52;100644.31;;;0.57;100.00
26192;BME280;13935;55.672;37.764;2022-11-20T13:48:22;100636.06;;;0.48;100.00
26192;BME280;13935;55.672;37.764;2022-11-20T13:49:34;100640.09;;;0.51;100.00
26192;BME280;13935;55.672;37.764;2022-11-20T13:52:42;100644.75;;;0.50;100.00
26192;BME280;13935;55.672;37.764;2022-11-20T13:54:11;100645.44;;;0.42;100.00
26192;BME280;13935;55.672;37.764;2022-11-20T13:55:45;100642.53;;;0.52;100.00
26192;BME280;13935;55.672;37.764;2022-11-20T13:58:29;100643.22;;;0.44;100.00
26192;BME280;13935;55.672;37.764;2022-11-20T13:59:49;100650.66;;;0.39;100.00
26192;BME280;13935;55.672;37.764;2022-11-20T14:01:23;100657.63;;;0.45;100.00
26192;BME280;13935;55.672;37.764;2022-11-20T14:05:04;100648.78;;;0.39;100.00
26192;BME280;13935;55.672;37.764;2022-11-20T14:07:40;100653.00;;;0.59;100.00
26192;BME280;13935;55.672;37.764;2022-11-20T14:08:48;100647.19;;;0.65;100.00
26192;BME280;13935;55.672;37.764;2022-11-20T14:09:56;100653.00;;;0.72;100.00
26192;BME280;13935;55.672;37.764;2022-11-20T14:11:16;100649.16;;;0.73;100.00
26192;BME280;13935;55.672;37.764;2022-11-20T14:12:35;100650.69;;;0.79;100.00
26192;BME280;13935;55.672;37.764;2022-11-20T14:14:02;100650.81;;;0.61;100.00
26192;BME280;13935;55.672;37.764;2022-11-20T14:15:24;100653.19;;;0.75;100.00
26192;BME280;13935;55.672;37.764;2022-11-20T14:16:34;100660.16;;;0.68;100.00
26192;BME280;13935;55.672;37.764;2022-11-20T14:17:55;100664.41;;;0.74;100.00
26192;BME280;13935;55.672;37.764;2022-11-20T14:20:28;100667.81;;;0.66;100.00
26192;BME280;13935;55.672;37.764;2022-11-20T14:24:13;100666.22;;;0.65;100.00
26192;BME280;13935;55.672;37.764;2022-11-20T14:25:23;100675.81;;;0.76;100.00
26192;BME280;13935;55.672;37.764;2022-11-20T14:26:28;100671.66;;;0.78;100.00
26192;BME280;13935;55.672;37.764;2022-11-20T14:27:36;100669.44;;;0.67;100.00
26192;BME280;13935;55.672;37.764;2022-11-20T14:28:39;100674.19;;;0.75;100.00